Hauptseite
METAR-TAF:

METAR-TAF

Flughäfen :

Flughafen Marka International

Amman, Jordanien

Breite: 31-59N, Länge: 035-59E, Höhe: 767 m

Beobachtung

Neuester Wetterbericht von vor 20 Minuten, um 06:00 UTC
Wind 8 kt aus West/Nordwest
Temperatur 31°C
Luftfeuchtigkeit 14%
Luftdruck 1012 hPa
Sichtweite: 8000 m

METAR: OJAM 250600Z 30008KT 8000 NSC 31/00 Q1012 NOSIG

Zeit: 09:20 (06:20 UTC)

Prognose

Neuester Wetterbericht von vor 1 Stunde und 30 Minuten, um 04:50 UTC
Gültige Prognose vom 25 um 06 UTC bis 26 um 12 UTC
Wind 10 kt aus West
Sichtweite: 5000 m
trockener Dunst
Wahrscheinlichkeit 40% :
Zeitweise
vom 25 um 11 UTC bis 25 um 17 UTC
Wind 20 kt aus West/Nordwest
Sichtweite: 4000 m
Staubtreiben
Übergehend zu
vom 25 um 18 UTC bis 25 um 20 UTC
Wind 2 kt aus unterschiedlichen Richtungen
Sichtweite: 6000 m

TAF: OJAM 250450Z 2506/2612 28010KT 5000 HZ NSC PROB40 TEMPO 2511/2517 29020KT 4000 BLDU BECMG 2518/2520 VRB02KT 6000

Wetterbeobachtungen und Prognosen von mehr als 4000 Flughäfen (METAR und TAF Bericht).

Die verfügbaren Stationen werden durch gelbe und rote Markierungen auf der Karte dargestellt.

Führen Sie die Maus auf sie, um den Namen der Station zu sehen.

Darauf klicken, um die Beobachtung von Wetterbeobachtungen und Prognosen zu sehen.

Um die Karte zu ändern : klicken Sie auf den grünen Tasten mit einem schwarzen Kreuz Zum Vergrößern, auf den grünen Button mit einem Gedankenstrich zu verkleinern, oder auf die grünen Pfeile für benachbarte Karten.


METAR-TAF: